Time;durP1;ratioP1;P1;durP2;ratioP2;P2;SDS_P1;SDS_P2;PMS_P1;PMS_P2;Temp;Humidity;BMP_temperature;BMP_pressure;BME280_temperature;BME280_humidity;BME280_pressure;Samples;Min_cycle;Max_cycle;Signal;HPM_P1;HPM_P2
2024/01/09 00:02:20;;;;;;;3.15;2.00;;;-5.40;99.90;;;;;;5005427;28;20038;-60
2024/01/09 00:04:45;;;;;;;6.18;2.20;;;-5.40;99.90;;;;;;5003227;28;20034;-60
2024/01/09 00:07:11;;;;;;;9.45;2.45;;;-5.40;99.90;;;;;;5003816;28;20030;-59
2024/01/09 00:09:36;;;;;;;4.75;1.92;;;-5.40;99.90;;;;;;5003279;28;20474;-60
2024/01/09 00:12:02;;;;;;;4.85;2.38;;;-5.40;99.90;;;;;;5004345;28;20414;-60
2024/01/09 00:14:28;;;;;;;6.03;1.95;;;-5.40;99.90;;;;;;5005022;28;20056;-60
2024/01/09 00:16:54;;;;;;;2.55;1.98;;;-5.40;99.90;;;;;;5004896;28;20038;-60
2024/01/09 00:19:19;;;;;;;2.85;1.92;;;-5.40;99.90;;;;;;5002005;28;20033;-60
2024/01/09 00:21:48;;;;;;;2.50;2.15;;;-5.40;99.90;;;;;;5003621;28;20585;-58
2024/01/09 00:24:13;;;;;;;3.97;2.17;;;-5.40;99.90;;;;;;5004502;28;20070;-60
2024/01/09 00:26:45;;;;;;;2.60;1.40;;;-5.40;99.90;;;;;;5002841;28;20034;-60
2024/01/09 00:29:11;;;;;;;4.35;2.85;;;-5.50;99.90;;;;;;5003363;28;20181;-59
2024/01/09 00:31:36;;;;;;;2.90;2.22;;;-5.50;99.90;;;;;;5003227;28;20032;-60
2024/01/09 00:34:02;;;;;;;4.28;2.17;;;-5.60;99.90;;;;;;5004460;28;20533;-60
2024/01/09 00:36:27;;;;;;;3.17;1.67;;;-5.60;99.90;;;;;;5004342;28;20042;-59
2024/01/09 00:38:53;;;;;;;2.17;1.90;;;-5.60;99.90;;;;;;5004774;28;20324;-58
2024/01/09 00:41:19;;;;;;;6.95;2.28;;;-5.60;99.90;;;;;;5003600;28;20573;-60
2024/01/09 00:43:44;;;;;;;3.53;2.38;;;-5.60;99.90;;;;;;5003724;28;20022;-59
2024/01/09 00:46:10;;;;;;;2.72;1.73;;;-5.70;99.90;;;;;;5005218;28;20594;-60
2024/01/09 00:48:35;;;;;;;4.10;2.40;;;-5.60;99.90;;;;;;5001730;28;20061;-59
2024/01/09 00:51:01;;;;;;;2.17;1.35;;;-5.60;99.90;;;;;;5004404;28;20022;-59
2024/01/09 00:53:26;;;;;;;3.22;2.10;;;-5.60;99.90;;;;;;5003241;28;20041;-60
2024/01/09 00:55:52;;;;;;;4.00;2.17;;;-5.60;99.90;;;;;;5004757;28;20101;-58
2024/01/09 00:58:18;;;;;;;2.67;1.90;;;-5.70;99.90;;;;;;5001670;28;20018;-60
2024/01/09 01:00:44;;;;;;;5.28;2.30;;;-5.70;99.90;;;;;;5004469;28;20056;-59
2024/01/09 01:03:09;;;;;;;2.55;2.03;;;-5.80;99.90;;;;;;4995188;28;20053;-59
2024/01/09 01:05:35;;;;;;;3.40;2.03;;;-5.80;99.90;;;;;;5000766;28;20058;-60
2024/01/09 01:08:00;;;;;;;3.15;2.13;;;-5.90;99.90;;;;;;4998507;28;20025;-59
2024/01/09 01:10:26;;;;;;;7.13;2.72;;;-5.90;99.90;;;;;;4999769;28;20139;-58
2024/01/09 01:12:51;;;;;;;4.97;2.00;;;-5.90;99.90;;;;;;4999791;28;20517;-59
2024/01/09 01:15:17;;;;;;;3.67;2.38;;;-5.90;99.90;;;;;;5012834;28;20033;-61
2024/01/09 01:17:43;;;;;;;4.93;2.47;;;-5.90;99.90;;;;;;5001664;28;20034;-59
2024/01/09 01:20:09;;;;;;;2.70;2.20;;;-5.90;99.90;;;;;;4998994;28;20053;-59
2024/01/09 01:22:35;;;;;;;2.97;1.70;;;-5.90;99.90;;;;;;4998851;28;20110;-59
2024/01/09 01:25:01;;;;;;;3.13;2.03;;;-6.00;99.90;;;;;;4999808;28;20149;-59
2024/01/09 01:27:26;;;;;;;4.35;2.08;;;-6.00;99.90;;;;;;5001378;28;20073;-59
2024/01/09 01:29:52;;;;;;;6.03;2.42;;;-6.00;99.90;;;;;;5001276;28;20589;-59
2024/01/09 01:32:17;;;;;;;3.08;1.77;;;-6.00;99.90;;;;;;4998520;28;20383;-61
2024/01/09 01:34:43;;;;;;;2.40;1.60;;;-6.00;99.90;;;;;;5000534;28;20585;-60
2024/01/09 01:37:08;;;;;;;2.53;2.17;;;-6.10;99.90;;;;;;5000459;28;20417;-58
2024/01/09 01:39:36;;;;;;;6.63;2.35;;;-6.10;99.90;;;;;;4999249;28;20576;-60
2024/01/09 01:42:01;;;;;;;4.57;2.53;;;-6.20;99.90;;;;;;4998751;28;20037;-59
2024/01/09 01:44:27;;;;;;;2.58;1.95;;;-6.20;99.90;;;;;;4998760;28;20514;-60
2024/01/09 01:46:53;;;;;;;4.72;2.20;;;-6.20;99.90;;;;;;5000055;28;20021;-60
2024/01/09 01:49:19;;;;;;;4.70;2.58;;;-6.20;99.90;;;;;;5002354;28;20032;-60
2024/01/09 01:51:47;;;;;;;4.57;2.25;;;-6.30;99.90;;;;;;4998018;28;20490;-61
2024/01/09 01:54:14;;;;;;;2.83;2.28;;;-6.30;99.90;;;;;;5000949;28;20037;-59
2024/01/09 01:56:45;;;;;;;3.80;1.88;;;-6.30;99.90;;;;;;4996012;28;20034;-59
2024/01/09 01:59:31;;;;;;;4.00;2.25;;;-6.40;99.90;;;;;;4998965;28;20030;-60
2024/01/09 02:01:56;;;;;;;3.00;2.23;;;-6.40;99.90;;;;;;4995784;28;20030;-60
2024/01/09 02:04:24;;;;;;;2.28;1.73;;;-6.40;99.90;;;;;;5001339;28;20281;-59
2024/01/09 02:06:49;;;;;;;3.00;2.00;;;-6.50;99.90;;;;;;4996912;28;20025;-59
2024/01/09 02:09:15;;;;;;;3.05;2.05;;;-6.50;99.90;;;;;;5000148;28;20516;-55
2024/01/09 02:11:41;;;;;;;2.92;2.30;;;-6.50;99.90;;;;;;4998087;28;20088;-59
2024/01/09 02:14:07;;;;;;;2.95;2.30;;;-6.60;99.90;;;;;;4999654;28;20048;-59
2024/01/09 02:16:32;;;;;;;4.43;2.70;;;-6.60;99.90;;;;;;4998025;28;20026;-59
2024/01/09 02:18:58;;;;;;;4.53;2.85;;;-6.70;99.90;;;;;;4997502;28;20117;-59
2024/01/09 02:21:23;;;;;;;4.60;2.50;;;-6.70;99.90;;;;;;4997501;28;20026;-59
2024/01/09 02:23:49;;;;;;;4.60;2.70;;;-6.80;99.90;;;;;;4995609;28;20065;-58
2024/01/09 02:26:20;;;;;;;4.50;2.67;;;-6.80;99.90;;;;;;4997752;28;20053;-60
2024/01/09 02:28:48;;;;;;;5.93;2.83;;;-6.90;99.90;;;;;;5012034;28;20073;-60
2024/01/09 02:31:14;;;;;;;5.78;2.92;;;-6.90;99.90;;;;;;4995994;28;20104;-59
2024/01/09 02:33:40;;;;;;;4.68;3.08;;;-6.90;99.90;;;;;;4999661;28;20038;-59
2024/01/09 02:36:06;;;;;;;6.40;2.97;;;-6.90;99.90;;;;;;4997472;28;20117;-60
2024/01/09 02:38:31;;;;;;;4.95;3.38;;;-6.90;99.90;;;;;;5000509;28;20594;-59
2024/01/09 02:40:57;;;;;;;6.20;3.88;;;-6.90;99.90;;;;;;4998428;28;20041;-60
2024/01/09 02:43:22;;;;;;;3.63;2.78;;;-7.00;99.90;;;;;;4999430;28;20098;-59
2024/01/09 02:45:48;;;;;;;6.90;3.80;;;-7.00;99.90;;;;;;4998589;28;20080;-58
2024/01/09 02:48:13;;;;;;;5.38;3.35;;;-6.90;99.90;;;;;;4999033;28;20037;-58
2024/01/09 02:50:39;;;;;;;5.73;3.70;;;-6.90;99.90;;;;;;4998156;28;20105;-58
2024/01/09 02:53:04;;;;;;;7.03;3.35;;;-7.00;99.90;;;;;;4998558;28;20038;-60
2024/01/09 02:55:30;;;;;;;7.88;4.25;;;-7.00;99.90;;;;;;4998290;28;20213;-59
2024/01/09 02:57:55;;;;;;;5.72;3.95;;;-7.00;99.90;;;;;;5001445;28;20505;-58
2024/01/09 03:00:21;;;;;;;5.17;3.77;;;-7.00;99.90;;;;;;5015538;28;20173;-60
2024/01/09 03:02:47;;;;;;;5.95;3.53;;;-7.10;99.90;;;;;;4995861;28;20087;-59
2024/01/09 03:05:12;;;;;;;4.75;2.95;;;-7.00;99.90;;;;;;5001032;28;20042;-59
2024/01/09 03:07:38;;;;;;;8.02;3.40;;;-7.10;99.90;;;;;;4998278;28;20141;-60
2024/01/09 03:10:04;;;;;;;4.95;3.45;;;-7.20;99.90;;;;;;4998252;28;20026;-59
2024/01/09 03:12:29;;;;;;;7.43;4.45;;;-7.20;99.90;;;;;;4997778;28;20037;-59
2024/01/09 03:14:55;;;;;;;6.65;4.05;;;-7.20;99.90;;;;;;4998958;28;20038;-58
2024/01/09 03:17:21;;;;;;;6.30;4.07;;;-7.30;99.90;;;;;;4998494;28;20022;-59
2024/01/09 03:19:47;;;;;;;5.27;3.93;;;-7.30;99.90;;;;;;4998489;28;20119;-60
2024/01/09 03:22:12;;;;;;;6.73;4.50;;;-7.30;99.90;;;;;;4998557;28;20161;-59
2024/01/09 03:24:38;;;;;;;8.33;4.50;;;-7.30;99.90;;;;;;4997467;28;20112;-60
2024/01/09 03:27:04;;;;;;;8.53;4.50;;;-7.30;99.90;;;;;;4999477;28;20405;-60
2024/01/09 03:29:30;;;;;;;6.83;4.03;;;-7.30;99.90;;;;;;4996169;28;20140;-57
2024/01/09 03:31:56;;;;;;;8.60;4.97;;;-7.40;99.90;;;;;;4998231;28;20057;-59
2024/01/09 03:34:21;;;;;;;9.97;4.27;;;-7.40;99.90;;;;;;4999461;28;20048;-60
2024/01/09 03:36:47;;;;;;;10.10;5.17;;;-7.50;99.90;;;;;;4997155;28;20061;-58
2024/01/09 03:39:16;;;;;;;7.20;5.17;;;-7.50;99.90;;;;;;5000236;28;20034;-59
2024/01/09 03:41:42;;;;;;;8.82;5.40;;;-7.50;99.90;;;;;;4999236;28;20084;-60
2024/01/09 03:44:12;;;;;;;10.00;5.40;;;-7.50;99.90;;;;;;5016863;28;20029;-58
2024/01/09 03:46:38;;;;;;;8.52;5.38;;;-7.40;99.90;;;;;;4998862;28;20441;-60
2024/01/09 03:49:03;;;;;;;9.47;4.90;;;-7.40;99.90;;;;;;4998138;28;20035;-60
2024/01/09 03:51:29;;;;;;;11.20;5.72;;;-7.40;99.90;;;;;;4999476;28;20513;-60
2024/01/09 03:53:55;;;;;;;10.53;5.50;;;-7.40;99.90;;;;;;4999868;28;20535;-60
2024/01/09 03:56:20;;;;;;;8.93;5.90;;;-7.40;99.90;;;;;;4998737;28;20034;-60
2024/01/09 03:58:46;;;;;;;12.43;5.37;;;-7.40;99.90;;;;;;4999191;28;20029;-60
2024/01/09 04:01:12;;;;;;;10.27;5.70;;;-7.40;99.90;;;;;;4999139;28;20057;-60
2024/01/09 04:03:37;;;;;;;9.70;5.67;;;-7.50;99.90;;;;;;4997714;28;20054;-58
2024/01/09 04:06:03;;;;;;;7.60;5.23;;;-7.50;99.90;;;;;;5000519;28;20037;-60
2024/01/09 04:08:29;;;;;;;7.80;5.80;;;-7.60;99.90;;;;;;4999161;28;20034;-60
2024/01/09 04:10:54;;;;;;;11.43;6.40;;;-7.60;99.90;;;;;;4999712;28;20038;-60
2024/01/09 04:13:20;;;;;;;10.07;5.20;;;-7.60;99.90;;;;;;4999156;28;20667;-60
2024/01/09 04:15:46;;;;;;;11.27;6.33;;;-7.60;99.90;;;;;;4998788;28;20109;-60
2024/01/09 04:18:12;;;;;;;8.83;5.70;;;-7.60;99.90;;;;;;5002913;28;20528;-60
2024/01/09 04:20:39;;;;;;;9.20;5.13;;;-7.60;99.90;;;;;;5002076;28;20417;-58
2024/01/09 04:23:04;;;;;;;11.70;5.57;;;-7.60;99.90;;;;;;5003529;28;20133;-61
2024/01/09 04:25:30;;;;;;;9.63;6.27;;;-7.60;99.90;;;;;;5003392;28;20129;-60
2024/01/09 04:27:55;;;;;;;9.77;5.40;;;-7.70;99.90;;;;;;5003282;28;20113;-60
2024/01/09 04:30:21;;;;;;;11.13;6.00;;;-7.70;99.90;;;;;;5003047;28;20061;-61
2024/01/09 04:32:46;;;;;;;13.27;6.47;;;-7.70;99.90;;;;;;5001712;28;20033;-60
2024/01/09 04:35:12;;;;;;;7.37;5.47;;;-7.70;99.90;;;;;;5000864;28;20514;-59
2024/01/09 04:37:37;;;;;;;6.80;5.50;;;-7.70;99.90;;;;;;5004611;28;20034;-61
2024/01/09 04:40:04;;;;;;;10.23;5.87;;;-7.70;99.90;;;;;;5003184;28;20033;-61
2024/01/09 04:42:29;;;;;;;10.97;6.47;;;-7.70;99.90;;;;;;5003302;28;20030;-60
2024/01/09 04:44:55;;;;;;;10.20;5.23;;;-7.70;99.90;;;;;;5002571;28;20034;-61
2024/01/09 04:47:20;;;;;;;8.27;5.70;;;-7.70;99.90;;;;;;5002454;28;20076;-61
2024/01/09 04:49:46;;;;;;;10.67;6.07;;;-7.70;99.90;;;;;;5002582;28;20599;-60
2024/01/09 04:52:11;;;;;;;9.73;6.27;;;-7.70;99.90;;;;;;5004257;28;20451;-60
2024/01/09 04:54:37;;;;;;;9.60;5.70;;;-7.70;99.90;;;;;;5001752;28;20688;-61
2024/01/09 04:57:03;;;;;;;8.57;6.15;;;-7.70;99.90;;;;;;5003596;28;20093;-61
2024/01/09 04:59:28;;;;;;;10.27;5.47;;;-7.70;99.90;;;;;;5015858;28;20128;-61
2024/01/09 05:01:54;;;;;;;7.70;5.23;;;-7.60;99.90;;;;;;5000712;28;20064;-61
2024/01/09 05:04:20;;;;;;;10.30;5.73;;;-7.70;99.90;;;;;;5002491;28;20096;-61
2024/01/09 05:06:45;;;;;;;9.65;6.18;;;-7.70;99.90;;;;;;5003747;28;20064;-62
2024/01/09 05:09:11;;;;;;;9.45;6.38;;;-7.80;99.90;;;;;;5002201;28;20048;-62
2024/01/09 05:11:37;;;;;;;7.97;6.23;;;-7.80;99.90;;;;;;5001298;28;20040;-62
2024/01/09 05:14:02;;;;;;;9.87;6.70;;;-7.90;99.90;;;;;;5000033;28;20034;-62
2024/01/09 05:16:28;;;;;;;10.17;6.17;;;-7.80;99.90;;;;;;5003149;28;20040;-61
2024/01/09 05:18:54;;;;;;;12.88;6.93;;;-7.80;99.90;;;;;;5000087;28;20033;-62
2024/01/09 05:21:20;;;;;;;12.03;6.53;;;-7.90;99.90;;;;;;5003677;28;20026;-62
2024/01/09 05:23:45;;;;;;;8.67;6.03;;;-7.90;99.90;;;;;;5000105;28;20050;-62
2024/01/09 05:26:11;;;;;;;10.77;5.80;;;-7.90;99.90;;;;;;5004244;28;20022;-61
2024/01/09 05:28:37;;;;;;;8.77;5.93;;;-7.80;99.90;;;;;;5002154;28;20954;-61
2024/01/09 05:31:03;;;;;;;6.83;5.57;;;-7.80;99.90;;;;;;5001291;28;20036;-61
2024/01/09 05:33:28;;;;;;;6.13;4.70;;;-7.80;99.90;;;;;;4998172;28;20069;-61
2024/01/09 05:35:54;;;;;;;7.33;5.47;;;-7.80;99.90;;;;;;5039621;22;20073;-58
2024/01/09 05:38:20;;;;;;;9.83;6.80;;;-7.80;99.90;;;;;;5016524;28;20112;-59
2024/01/09 05:40:48;;;;;;;9.77;6.15;;;-7.90;99.90;;;;;;5017929;28;20025;-58
2024/01/09 05:43:14;;;;;;;10.20;5.73;;;-7.90;99.90;;;;;;5018114;28;20116;-60
2024/01/09 05:45:39;;;;;;;10.10;6.70;;;-7.90;99.90;;;;;;5006400;28;20472;-61
2024/01/09 05:48:06;;;;;;;10.23;5.67;;;-7.90;99.90;;;;;;5002583;28;20091;-61
2024/01/09 05:50:32;;;;;;;10.40;6.47;;;-7.90;99.90;;;;;;5005096;28;20033;-61
2024/01/09 05:52:57;;;;;;;10.73;6.40;;;-7.90;99.90;;;;;;5002963;28;20689;-59
2024/01/09 05:55:23;;;;;;;11.93;7.00;;;-7.90;99.90;;;;;;5001065;28;20108;-60
2024/01/09 05:57:49;;;;;;;10.30;5.80;;;-7.90;99.90;;;;;;5004630;28;20450;-58
2024/01/09 06:00:16;;;;;;;12.18;7.65;;;-7.90;99.90;;;;;;5008012;28;20057;-59
2024/01/09 06:02:41;;;;;;;9.10;6.27;;;-8.00;99.90;;;;;;4997122;28;20026;-60
2024/01/09 06:05:07;;;;;;;10.17;6.20;;;-8.00;99.90;;;;;;5002774;28;20037;-60
2024/01/09 06:07:33;;;;;;;12.20;6.37;;;-8.00;99.90;;;;;;5001611;28;20171;-60
2024/01/09 06:09:59;;;;;;;9.90;6.88;;;-8.00;99.90;;;;;;5001472;28;20031;-60
2024/01/09 06:12:24;;;;;;;13.67;6.23;;;-8.00;99.90;;;;;;5002980;28;20494;-59
2024/01/09 06:14:50;;;;;;;11.37;5.97;;;-8.00;99.90;;;;;;4999434;28;20125;-59
2024/01/09 06:17:16;;;;;;;10.40;6.33;;;-8.00;99.90;;;;;;5000490;28;20030;-59
2024/01/09 06:19:41;;;;;;;10.37;6.17;;;-8.00;99.90;;;;;;5001856;28;20026;-60
2024/01/09 06:22:07;;;;;;;11.27;6.40;;;-8.00;99.90;;;;;;5002144;28;20018;-60
2024/01/09 06:24:33;;;;;;;10.37;7.03;;;-8.00;99.90;;;;;;5000945;28;20065;-61
2024/01/09 06:26:58;;;;;;;9.90;6.03;;;-8.00;99.90;;;;;;4998173;28;20037;-59
2024/01/09 06:29:24;;;;;;;9.90;6.20;;;-8.00;99.90;;;;;;5001459;28;20060;-61
2024/01/09 06:31:50;;;;;;;8.57;6.23;;;-8.00;99.90;;;;;;5005534;28;20040;-61
2024/01/09 06:34:15;;;;;;;7.50;5.60;;;-8.00;99.90;;;;;;5002532;28;20140;-60
2024/01/09 06:36:45;;;;;;;10.30;6.97;;;-8.00;99.90;;;;;;5001914;28;20119;-60
2024/01/09 06:39:11;;;;;;;9.30;5.23;;;-8.00;99.90;;;;;;5006822;28;20660;-59
2024/01/09 06:41:36;;;;;;;7.50;5.37;;;-8.00;99.90;;;;;;5001201;28;20102;-61
2024/01/09 06:44:02;;;;;;;12.13;6.33;;;-8.00;99.90;;;;;;5007861;28;20394;-61
2024/01/09 06:46:28;;;;;;;10.67;6.30;;;-8.00;99.90;;;;;;5000386;28;20034;-61
2024/01/09 06:48:53;;;;;;;8.63;5.53;;;-8.00;99.90;;;;;;5004261;28;20042;-59
2024/01/09 06:51:19;;;;;;;8.10;5.23;;;-8.00;99.90;;;;;;4999783;28;20036;-59
2024/01/09 06:53:45;;;;;;;9.87;6.27;;;-8.10;99.90;;;;;;5002522;28;20045;-60
2024/01/09 06:56:10;;;;;;;13.47;6.60;;;-8.10;99.90;;;;;;5000146;28;20030;-60
2024/01/09 06:58:36;;;;;;;13.53;7.43;;;-8.10;99.90;;;;;;5000565;28;20069;-61
2024/01/09 07:01:01;;;;;;;10.30;6.33;;;-8.10;99.90;;;;;;5004644;28;20030;-60
2024/01/09 07:03:27;;;;;;;9.43;6.13;;;-8.10;99.90;;;;;;4998180;28;20122;-61
2024/01/09 07:05:52;;;;;;;13.47;6.80;;;-8.00;99.90;;;;;;5000466;28;20030;-61
2024/01/09 07:08:18;;;;;;;12.00;6.40;;;-8.00;99.90;;;;;;4998492;28;20026;-59
2024/01/09 07:10:43;;;;;;;10.13;6.50;;;-8.10;99.90;;;;;;5004849;28;20033;-61
2024/01/09 07:13:09;;;;;;;12.23;7.13;;;-8.10;99.90;;;;;;4997643;28;20034;-60
2024/01/09 07:15:36;;;;;;;11.53;6.93;;;-8.10;99.90;;;;;;5001695;28;20418;-60
2024/01/09 07:18:02;;;;;;;12.17;7.23;;;-8.10;99.90;;;;;;5005915;28;20025;-59
2024/01/09 07:20:27;;;;;;;12.50;6.10;;;-8.10;99.90;;;;;;4998966;28;20019;-61
2024/01/09 07:22:53;;;;;;;10.63;5.73;;;-8.10;99.90;;;;;;5001932;28;20029;-60
2024/01/09 07:25:18;;;;;;;9.90;6.93;;;-8.10;99.90;;;;;;4997782;28;20435;-61
2024/01/09 07:27:44;;;;;;;11.00;6.57;;;-8.10;99.90;;;;;;5000864;28;20104;-60
2024/01/09 07:30:10;;;;;;;11.60;6.87;;;-8.10;99.90;;;;;;5000670;28;20068;-60
2024/01/09 07:32:35;;;;;;;11.07;6.23;;;-8.10;99.90;;;;;;5005649;28;20121;-61
2024/01/09 07:35:01;;;;;;;9.70;5.70;;;-8.10;99.90;;;;;;5003302;28;20049;-59
2024/01/09 07:37:27;;;;;;;8.57;6.00;;;-8.00;99.90;;;;;;5003106;28;20036;-61
2024/01/09 07:39:52;;;;;;;8.47;6.17;;;-8.00;99.90;;;;;;5001831;28;20104;-61
2024/01/09 07:42:18;;;;;;;11.03;6.50;;;-8.00;99.90;;;;;;5004134;28;20075;-60
2024/01/09 07:44:43;;;;;;;12.57;6.20;;;-8.00;99.90;;;;;;5003435;28;20079;-59
2024/01/09 07:47:11;;;;;;;11.37;6.43;;;-8.10;99.90;;;;;;5002935;28;20038;-60
2024/01/09 07:49:37;;;;;;;11.17;6.27;;;-8.10;99.90;;;;;;5000886;28;20046;-61
2024/01/09 07:52:03;;;;;;;10.83;6.10;;;-8.10;99.90;;;;;;5006467;28;20060;-61
2024/01/09 07:54:28;;;;;;;10.17;6.33;;;-8.10;99.90;;;;;;5007296;28;20037;-61
2024/01/09 07:56:54;;;;;;;8.85;6.88;;;-8.10;99.90;;;;;;5006582;28;20026;-60
2024/01/09 07:59:20;;;;;;;9.67;5.60;;;-8.10;99.90;;;;;;5008605;28;20088;-62
2024/01/09 08:01:54;;;;;;;11.70;6.43;;;-8.10;99.90;;;;;;5005794;28;20041;-62
2024/01/09 08:04:22;;;;;;;12.17;6.43;;;-8.00;99.90;;;;;;5001414;28;20241;-61
2024/01/09 08:06:50;;;;;;;29.03;10.20;;;-8.00;99.90;;;;;;5004158;28;20022;-60
2024/01/09 08:09:18;;;;;;;14.27;8.20;;;-8.00;99.90;;;;;;5005216;28;20105;-59
2024/01/09 08:11:45;;;;;;;10.27;7.07;;;-8.00;99.90;;;;;;5004730;28;20041;-61
2024/01/09 08:14:12;;;;;;;10.70;6.40;;;-7.90;99.90;;;;;;5007869;28;20486;-60
2024/01/09 08:16:37;;;;;;;12.27;7.13;;;-7.90;99.90;;;;;;5004734;28;20033;-60
2024/01/09 08:19:04;;;;;;;10.63;6.17;;;-7.90;99.90;;;;;;5007730;28;20109;-60
2024/01/09 08:21:31;;;;;;;11.30;7.07;;;-7.80;99.90;;;;;;5009263;28;20026;-61
2024/01/09 08:23:57;;;;;;;8.77;6.80;;;-7.80;99.90;;;;;;5006537;28;20529;-60
2024/01/09 08:26:22;;;;;;;11.07;7.13;;;-7.70;99.90;;;;;;5006090;28;20022;-62
2024/01/09 08:28:48;;;;;;;10.43;6.20;;;-7.70;99.90;;;;;;5006904;28;20079;-59
2024/01/09 08:31:14;;;;;;;12.93;6.83;;;-7.70;99.90;;;;;;5004386;28;20029;-60
2024/01/09 08:33:39;;;;;;;11.83;7.20;;;-7.70;99.90;;;;;;5001544;28;20513;-60
2024/01/09 08:36:05;;;;;;;8.57;6.17;;;-7.60;99.90;;;;;;5006031;28;20053;-61
2024/01/09 08:38:31;;;;;;;14.18;7.95;;;-7.60;99.90;;;;;;5005348;28;20022;-62
2024/01/09 08:40:56;;;;;;;11.63;8.25;;;-7.60;99.90;;;;;;5010498;28;20022;-62
2024/01/09 08:43:22;;;;;;;11.68;7.40;;;-7.50;99.90;;;;;;5005029;28;20033;-59
2024/01/09 08:45:49;;;;;;;11.73;6.93;;;-7.50;99.90;;;;;;5001946;28;20438;-61
2024/01/09 08:48:15;;;;;;;10.07;6.97;;;-7.40;99.90;;;;;;5003271;28;20026;-61
2024/01/09 08:50:41;;;;;;;9.57;6.20;;;-7.30;99.90;;;;;;4999831;28;20119;-61
2024/01/09 08:53:07;;;;;;;8.83;6.83;;;-7.20;99.90;;;;;;5000089;28;20502;-61
2024/01/09 08:55:33;;;;;;;8.70;6.97;;;-7.20;99.90;;;;;;5005024;28;20034;-61
2024/01/09 08:57:59;;;;;;;9.43;6.07;;;-7.10;99.90;;;;;;5000338;28;20487;-61
2024/01/09 09:00:25;;;;;;;11.10;7.13;;;-7.00;99.90;;;;;;5005473;28;20036;-62
2024/01/09 09:02:51;;;;;;;11.30;6.63;;;-7.00;99.90;;;;;;5001407;28;20030;-61
2024/01/09 09:05:16;;;;;;;9.53;6.87;;;-6.90;99.90;;;;;;5003017;28;20026;-61
2024/01/09 09:07:42;;;;;;;10.90;6.87;;;-6.80;99.90;;;;;;5004819;28;20771;-61
2024/01/09 09:10:08;;;;;;;10.23;7.43;;;-6.70;99.90;;;;;;5000506;28;20406;-61
2024/01/09 09:12:33;;;;;;;10.57;7.33;;;-6.70;99.90;;;;;;5000605;28;20492;-59
2024/01/09 09:15:00;;;;;;;16.30;8.17;;;-6.60;99.90;;;;;;5004030;28;20022;-60
2024/01/09 09:17:25;;;;;;;12.45;8.73;;;-6.50;99.90;;;;;;5009580;28;20030;-61
2024/01/09 09:19:51;;;;;;;11.47;8.43;;;-6.50;99.90;;;;;;5004175;28;20216;-59
2024/01/09 09:22:16;;;;;;;13.00;8.23;;;-6.40;99.90;;;;;;5007650;28;20100;-61
2024/01/09 09:24:42;;;;;;;9.93;7.63;;;-6.30;99.90;;;;;;5001991;28;20435;-61
2024/01/09 09:27:08;;;;;;;9.63;7.27;;;-6.20;99.90;;;;;;5004863;28;20026;-61
2024/01/09 09:29:33;;;;;;;10.85;7.55;;;-6.10;99.90;;;;;;5001567;28;20506;-61
2024/01/09 09:31:59;;;;;;;12.68;8.10;;;-6.00;99.90;;;;;;5004377;28;20026;-61
2024/01/09 09:34:25;;;;;;;13.20;8.73;;;-5.90;99.90;;;;;;5002919;28;20038;-61
2024/01/09 09:36:50;;;;;;;14.82;8.23;;;-5.80;99.90;;;;;;5003156;28;20444;-61
2024/01/09 09:39:16;;;;;;;10.68;7.70;;;-5.60;99.90;;;;;;5001383;28;20355;-61
2024/01/09 09:41:44;;;;;;;10.45;6.93;;;-5.50;99.90;;;;;;5001241;28;20014;-61
2024/01/09 09:44:14;;;;;;;12.88;7.85;;;-5.40;99.90;;;;;;5001985;28;20457;-62
2024/01/09 09:46:41;;;;;;;12.95;9.15;;;-5.30;99.90;;;;;;4997399;28;20044;-59
2024/01/09 09:49:08;;;;;;;13.68;9.57;;;-5.20;99.90;;;;;;5005700;28;20598;-58
2024/01/09 09:51:36;;;;;;;11.85;7.93;;;-5.10;99.90;;;;;;4998270;28;20060;-59
2024/01/09 09:54:03;;;;;;;11.55;8.43;;;-5.00;99.90;;;;;;5005971;28;20026;-59
2024/01/09 09:56:30;;;;;;;13.68;9.07;;;-4.90;99.90;;;;;;5003188;28;20457;-62
2024/01/09 09:58:55;;;;;;;12.27;8.50;;;-4.80;99.90;;;;;;5003554;28;20085;-62
2024/01/09 10:01:23;;;;;;;12.18;8.38;;;-4.70;99.90;;;;;;5002649;28;20045;-61
2024/01/09 10:03:56;;;;;;;12.27;7.63;;;-4.60;99.90;;;;;;5004940;28;20072;-61
2024/01/09 10:06:22;;;;;;;12.38;8.35;;;-4.60;99.90;;;;;;5002428;28;20100;-61
2024/01/09 10:08:51;;;;;;;11.35;6.55;;;-4.40;99.90;;;;;;5002384;28;20105;-59
2024/01/09 10:11:17;;;;;;;11.93;7.35;;;-4.40;99.90;;;;;;5001036;28;20722;-59
2024/01/09 10:13:43;;;;;;;8.93;7.20;;;-4.30;99.90;;;;;;5000275;28;20068;-59
2024/01/09 10:16:09;;;;;;;10.65;7.35;;;-4.30;99.90;;;;;;5002989;28;20022;-59
2024/01/09 10:18:35;;;;;;;12.80;8.18;;;-4.20;99.90;;;;;;5003643;28;20032;-59
2024/01/09 10:21:01;;;;;;;12.30;8.10;;;-4.10;99.90;;;;;;5001452;28;20494;-60
2024/01/09 10:23:27;;;;;;;11.20;6.72;;;-4.10;99.90;;;;;;5001936;28;20027;-59
2024/01/09 10:25:56;;;;;;;12.23;7.45;;;-4.00;99.90;;;;;;5003132;28;20025;-59
2024/01/09 10:28:22;;;;;;;10.90;7.75;;;-4.10;99.90;;;;;;5006838;28;20471;-59
2024/01/09 10:30:51;;;;;;;11.25;7.15;;;-4.10;99.90;;;;;;5009958;28;20036;-59
2024/01/09 10:33:17;;;;;;;11.07;7.47;;;-4.00;99.90;;;;;;5004715;28;20490;-60
2024/01/09 10:35:43;;;;;;;11.70;7.18;;;-4.00;99.90;;;;;;5004911;28;20052;-59
2024/01/09 10:38:10;;;;;;;10.98;7.47;;;-4.10;99.90;;;;;;5006647;28;20022;-60
2024/01/09 10:40:36;;;;;;;12.20;8.73;;;-4.10;99.90;;;;;;5002227;28;20059;-59
2024/01/09 10:43:02;;;;;;;11.05;7.95;;;-4.10;99.90;;;;;;5003148;28;20127;-59
2024/01/09 10:45:28;;;;;;;8.32;6.63;;;-4.10;99.90;;;;;;5001179;28;20089;-60
2024/01/09 10:47:54;;;;;;;12.18;7.55;;;-4.10;99.90;;;;;;5006848;28;20545;-57
2024/01/09 10:50:24;;;;;;;12.93;7.68;;;-4.10;99.90;;;;;;5002209;28;20032;-60
2024/01/09 10:52:50;;;;;;;12.32;7.35;;;-4.10;99.90;;;;;;5003821;28;20644;-58
2024/01/09 10:55:18;;;;;;;15.00;8.57;;;-4.10;99.90;;;;;;5002343;28;20533;-60
2024/01/09 10:57:45;;;;;;;11.43;7.75;;;-4.10;99.90;;;;;;5003044;28;20037;-59
2024/01/09 11:00:11;;;;;;;13.65;8.25;;;-4.10;99.90;;;;;;5002059;28;20029;-60
2024/01/09 11:02:37;;;;;;;13.35;8.48;;;-4.00;99.90;;;;;;5001327;28;20197;-59
2024/01/09 11:05:05;;;;;;;13.65;8.45;;;-3.90;99.90;;;;;;4997447;28;20030;-60
2024/01/09 11:07:34;;;;;;;13.38;8.77;;;-3.90;99.90;;;;;;5002434;28;20064;-60
2024/01/09 11:10:00;;;;;;;13.23;8.35;;;-3.90;99.90;;;;;;4997156;28;20032;-60
2024/01/09 11:12:34;;;;;;;14.75;9.52;;;-3.80;99.90;;;;;;5004357;28;20044;-60
2024/01/09 11:15:15;;;;;;;13.98;9.27;;;-3.80;99.90;;;;;;5010707;28;20037;-58
2024/01/09 11:17:43;;;;;;;13.27;9.18;;;-3.70;99.90;;;;;;5004347;28;20036;-58
2024/01/09 11:20:11;;;;;;;13.95;9.50;;;-3.60;99.90;;;;;;5004678;28;20030;-58
2024/01/09 11:22:37;;;;;;;15.85;8.88;;;-3.50;99.90;;;;;;5000142;28;20405;-56
2024/01/09 11:25:09;;;;;;;11.63;8.35;;;-3.40;99.90;;;;;;5002859;28;20117;-57
2024/01/09 11:27:41;;;;;;;12.65;9.48;;;-3.40;99.90;;;;;;5005399;28;20152;-58
2024/01/09 11:30:09;;;;;;;14.45;9.13;;;-3.30;99.90;;;;;;5002923;28;20026;-59
2024/01/09 11:32:34;;;;;;;12.52;9.07;;;-3.20;99.90;;;;;;5000832;28;20690;-57
2024/01/09 11:35:13;;;;;;;11.18;8.25;;;-3.10;99.90;;;;;;4999365;28;20038;-58
2024/01/09 11:37:43;;;;;;;12.50;8.07;;;-3.10;99.90;;;;;;5029270;23;20049;-58
2024/01/09 11:40:13;;;;;;;16.45;9.65;;;-3.10;99.90;;;;;;5001856;28;20531;-59
2024/01/09 11:42:42;;;;;;;17.77;9.70;;;-3.10;99.90;;;;;;5001828;28;20030;-59
2024/01/09 11:45:09;;;;;;;16.00;9.27;;;-3.10;99.90;;;;;;5007193;28;20033;-59
2024/01/09 11:47:38;;;;;;;13.98;8.98;;;-3.10;99.90;;;;;;5003663;28;20100;-58
2024/01/09 11:50:05;;;;;;;18.52;10.45;;;-3.10;99.90;;;;;;5004037;28;20038;-59
2024/01/09 11:52:31;;;;;;;16.80;10.23;;;-3.10;99.90;;;;;;5003088;28;20044;-59
2024/01/09 11:54:57;;;;;;;17.40;9.95;;;-3.20;99.90;;;;;;5003735;28;20037;-60
2024/01/09 11:57:23;;;;;;;15.23;9.48;;;-3.20;99.90;;;;;;5005920;28;20022;-58
2024/01/09 11:59:48;;;;;;;14.85;9.65;;;-3.20;99.90;;;;;;5000573;28;20414;-61
2024/01/09 12:02:17;;;;;;;16.10;10.10;;;-3.30;99.90;;;;;;5002891;28;20049;-59
2024/01/09 12:04:44;;;;;;;15.38;9.73;;;-3.30;99.90;;;;;;5002803;28;20037;-59
2024/01/09 12:07:11;;;;;;;17.35;9.48;;;-3.30;99.90;;;;;;4998414;28;20034;-58
2024/01/09 12:09:37;;;;;;;13.10;8.77;;;-3.40;99.90;;;;;;5001201;28;20037;-59
2024/01/09 12:12:08;;;;;;;16.00;8.90;;;-3.40;99.90;;;;;;5004774;28;20574;-58
2024/01/09 12:14:33;;;;;;;15.27;9.55;;;-3.40;99.90;;;;;;5004605;28;20034;-59
2024/01/09 12:16:59;;;;;;;16.67;9.15;;;-3.40;99.90;;;;;;5001084;28;20022;-57
2024/01/09 12:19:25;;;;;;;18.95;9.18;;;-3.40;99.90;;;;;;5002194;28;20386;-56
2024/01/09 12:21:50;;;;;;;15.02;9.35;;;-3.40;99.90;;;;;;5002355;28;20117;-60
2024/01/09 12:24:16;;;;;;;13.95;8.93;;;-3.40;99.90;;;;;;5000663;28;20030;-59
2024/01/09 12:26:43;;;;;;;13.02;8.80;;;-3.30;99.90;;;;;;5002210;28;20564;-57
2024/01/09 12:29:09;;;;;;;15.07;9.48;;;-3.30;99.90;;;;;;4999213;28;20026;-59
2024/01/09 12:31:36;;;;;;;16.13;9.98;;;-3.30;99.90;;;;;;5006925;28;20033;-59
2024/01/09 12:34:03;;;;;;;15.52;9.70;;;-3.30;99.90;;;;;;5000937;28;20022;-58
2024/01/09 12:36:29;;;;;;;17.15;10.30;;;-3.30;99.90;;;;;;5002027;28;20030;-58